Time;durP1;ratioP1;P1;durP2;ratioP2;P2;SDS_P1;SDS_P2;PMS_P1;PMS_P2;Temp;Humidity;BMP_temperature;BMP_pressure;BME280_temperature;BME280_humidity;BME280_pressure;Samples;Min_cycle;Max_cycle;Signal;HPM_P1;HPM_P2
2022/11/04 00:01:26;;;;;;;15.10;11.10;;;;;;;11.50;61.15;95050.56;5137967;27;20168;-71
2022/11/04 00:03:53;;;;;;;17.13;11.25;;;;;;;11.47;61.08;95054.03;5137160;27;20179;-71
2022/11/04 00:06:21;;;;;;;13.20;11.25;;;;;;;11.46;61.23;95049.69;5138077;27;20183;-71
2022/11/04 00:08:49;;;;;;;16.42;12.18;;;;;;;11.43;60.97;95047.63;5137071;27;20203;-71
2022/11/04 00:14:01;;;;;;;15.88;10.90;;;;;;;11.38;61.43;95047.94;5137574;27;20175;-71
2022/11/04 00:19:11;;;;;;;15.55;11.18;;;;;;;11.39;61.54;95048.72;5136538;27;20227;-72
2022/11/04 00:29:54;;;;;;;17.77;10.85;;;;;;;11.28;61.48;95040.19;5136744;27;20236;-72
2022/11/04 00:35:05;;;;;;;14.85;10.52;;;;;;;11.23;62.03;95037.72;5136336;27;20191;-71
2022/11/04 00:37:36;;;;;;;13.35;10.93;;;;;;;11.19;62.52;95029.34;5136545;27;20198;-71
2022/11/04 00:40:03;;;;;;;13.00;10.32;;;;;;;11.17;62.32;95036.38;5137135;27;20264;-71
2022/11/04 00:42:30;;;;;;;12.82;10.45;;;;;;;11.16;62.24;95032.00;5136585;27;20211;-71
2022/11/04 00:44:57;;;;;;;16.85;10.52;;;;;;;11.13;62.13;95030.75;5137305;27;20196;-71
2022/11/04 00:47:24;;;;;;;15.25;10.68;;;;;;;11.11;61.94;95027.56;5136987;27;20543;-71
2022/11/04 00:49:52;;;;;;;13.38;10.40;;;;;;;11.11;61.81;95019.28;5136005;27;20202;-71
2022/11/04 00:52:19;;;;;;;13.10;10.48;;;;;;;11.12;62.00;95020.88;5135822;27;20198;-71
2022/11/04 00:54:47;;;;;;;15.45;11.30;;;;;;;11.07;62.06;95015.63;5136510;27;20206;-71
2022/11/04 00:57:15;;;;;;;13.65;10.63;;;;;;;11.04;62.31;95019.91;5136133;27;20195;-71
2022/11/04 00:59:42;;;;;;;15.60;10.77;;;;;;;10.90;61.94;95013.25;5135851;27;20206;-71
2022/11/04 01:02:09;;;;;;;17.77;11.73;;;;;;;10.79;62.06;95011.00;5136717;27;20202;-72
2022/11/04 01:04:37;;;;;;;14.02;10.57;;;;;;;10.77;62.83;95013.31;5136855;27;20179;-71
2022/11/04 01:07:04;;;;;;;13.93;10.68;;;;;;;10.79;62.22;95011.00;5136010;27;20199;-72
2022/11/04 01:09:31;;;;;;;14.73;10.60;;;;;;;10.83;62.59;95011.91;5135883;27;20199;-72
2022/11/04 01:11:59;;;;;;;12.95;10.35;;;;;;;10.82;62.54;95006.72;5136483;27;20602;-72
2022/11/04 01:14:27;;;;;;;14.15;10.82;;;;;;;10.80;62.76;95004.34;5136446;27;20252;-72
2022/11/04 01:16:54;;;;;;;11.73;10.02;;;;;;;10.80;62.45;95000.78;5136716;27;20217;-72
2022/11/04 01:19:20;;;;;;;12.70;10.07;;;;;;;10.81;62.64;94997.66;5135509;27;20198;-72
2022/11/04 01:21:51;;;;;;;11.45;10.18;;;;;;;10.83;62.48;94989.81;5136768;27;20182;-72
2022/11/04 01:24:17;;;;;;;11.27;10.07;;;;;;;10.84;62.26;94993.38;5136725;27;20175;-72
2022/11/04 01:26:44;;;;;;;19.05;11.15;;;;;;;10.67;62.56;94991.78;5136701;27;20256;-72
2022/11/04 01:29:13;;;;;;;15.68;11.32;;;;;;;10.58;62.72;94986.44;5135348;27;20202;-72
2022/11/04 01:31:40;;;;;;;15.77;10.73;;;;;;;10.52;62.52;94987.06;5136387;27;20215;-72
2022/11/04 01:34:07;;;;;;;14.63;10.80;;;;;;;10.47;62.93;94990.88;5136242;27;20602;-72
2022/11/04 01:36:34;;;;;;;16.92;11.10;;;;;;;10.49;63.14;94990.50;5136428;27;20206;-72
2022/11/04 01:39:01;;;;;;;16.20;11.18;;;;;;;10.48;63.21;94988.91;5136159;27;20230;-72
2022/11/04 01:41:29;;;;;;;16.67;11.38;;;;;;;10.46;62.90;94989.28;5135658;27;20191;-72
2022/11/04 01:43:58;;;;;;;15.45;10.65;;;;;;;10.45;63.11;94990.41;5135451;27;20199;-72
2022/11/04 01:46:39;;;;;;;12.02;10.02;;;;;;;10.45;63.30;94984.91;5136215;27;20179;-72
2022/11/04 01:49:23;;;;;;;13.05;10.02;;;;;;;10.48;63.40;94983.41;5135427;27;20210;-71
2022/11/04 01:51:52;;;;;;;14.88;11.43;;;;;;;10.44;63.23;94979.75;5135206;28;20206;-71
2022/11/04 01:54:20;;;;;;;17.17;11.20;;;;;;;10.42;63.15;94980.13;5136279;27;20202;-71
2022/11/04 01:56:48;;;;;;;14.45;10.32;;;;;;;10.41;63.42;94986.78;5135512;28;20195;-71
2022/11/04 01:59:19;;;;;;;17.80;11.48;;;;;;;10.42;63.47;94980.13;5135329;28;20210;-71
2022/11/04 02:01:47;;;;;;;14.38;10.80;;;;;;;10.38;63.52;94973.69;5136188;27;20247;-72
2022/11/04 02:04:26;;;;;;;12.77;10.63;;;;;;;10.35;63.19;94969.69;5138672;27;20203;-72
2022/11/04 02:06:55;;;;;;;16.25;11.20;;;;;;;10.36;63.39;94970.50;5139876;27;20202;-71
2022/11/04 02:09:22;;;;;;;15.80;11.23;;;;;;;10.35;63.41;94969.69;5139656;27;20191;-71
2022/11/04 02:14:34;;;;;;;15.02;11.07;;;;;;;10.29;63.38;94965.59;5140089;27;20179;-71
2022/11/04 02:17:07;;;;;;;15.65;11.15;;;;;;;10.31;63.49;94967.97;5140428;27;20252;-71
2022/11/04 02:19:49;;;;;;;14.48;11.10;;;;;;;10.26;63.67;94957.22;5140182;27;20483;-71
2022/11/04 02:22:49;;;;;;;17.23;12.07;;;;;;;10.18;63.32;94953.47;5140186;27;20202;-71
2022/11/04 02:25:33;;;;;;;15.95;11.63;;;;;;;10.17;63.74;94951.03;5140138;27;20244;-71
2022/11/04 02:28:24;;;;;;;15.15;11.43;;;;;;;10.17;63.52;94959.31;5138879;27;20199;-71
2022/11/04 02:30:54;;;;;;;16.20;12.10;;;;;;;10.02;63.77;94964.47;5139945;27;20203;-71
2022/11/04 02:33:22;;;;;;;13.75;10.52;;;;;;;9.93;63.65;94965.75;5140061;27;20186;-71
2022/11/04 02:35:57;;;;;;;14.38;11.27;;;;;;;9.92;64.24;94956.69;5138951;27;20202;-71
2022/11/04 02:38:30;;;;;;;17.02;11.30;;;;;;;9.93;64.19;94957.50;5138874;27;20198;-71
2022/11/04 02:41:03;;;;;;;15.43;11.27;;;;;;;9.88;63.92;94953.84;5138991;27;20202;-71
2022/11/04 02:43:35;;;;;;;18.83;12.10;;;;;;;9.75;64.05;94957.78;5138471;27;20191;-71
2022/11/04 02:46:08;;;;;;;14.68;10.80;;;;;;;9.75;64.11;94954.22;5139464;27;20206;-71
2022/11/04 02:48:38;;;;;;;15.60;12.30;;;;;;;9.75;64.34;94960.53;5139610;27;20212;-71
2022/11/04 02:51:09;;;;;;;12.55;10.95;;;;;;;9.81;64.43;94953.63;5139493;27;20210;-71
2022/11/04 02:53:41;;;;;;;15.25;11.98;;;;;;;9.81;64.13;94950.88;5139439;27;20194;-71
2022/11/04 02:56:08;;;;;;;15.35;11.45;;;;;;;9.80;64.15;94954.81;5138908;27;20195;-71
2022/11/04 02:58:39;;;;;;;16.30;12.77;;;;;;;9.80;64.22;94957.56;5139572;27;20199;-71
2022/11/04 03:01:09;;;;;;;17.33;12.43;;;;;;;9.78;64.35;94956.28;5138356;27;20191;-71
2022/11/04 03:03:38;;;;;;;19.00;13.50;;;;;;;9.72;64.03;94950.22;5139300;27;20545;-71
2022/11/04 03:06:07;;;;;;;21.30;12.80;;;;;;;9.65;64.40;94956.31;5139097;27;20191;-71
2022/11/04 03:08:37;;;;;;;18.95;12.82;;;;;;;9.65;64.47;94953.56;5138876;27;20198;-71
2022/11/04 03:11:08;;;;;;;20.67;13.73;;;;;;;9.67;64.53;94957.94;5139228;27;20214;-72
2022/11/04 03:13:39;;;;;;;21.20;13.32;;;;;;;9.63;64.57;94952.34;5139157;27;20179;-72
2022/11/04 03:16:11;;;;;;;17.83;11.85;;;;;;;9.62;64.27;94942.44;5137530;27;20191;-70
2022/11/04 03:18:43;;;;;;;15.20;11.05;;;;;;;9.63;64.37;94949.56;5139071;27;20190;-71
2022/11/04 03:21:12;;;;;;;16.88;11.77;;;;;;;9.55;64.64;94943.06;5138021;27;20630;-71
2022/11/04 03:23:40;;;;;;;12.65;10.93;;;;;;;9.60;64.66;94953.81;5138054;27;20259;-70
2022/11/04 03:26:10;;;;;;;16.35;12.07;;;;;;;9.59;64.88;94946.72;5138967;27;20521;-71
2022/11/04 03:28:43;;;;;;;17.13;12.07;;;;;;;9.58;64.66;94958.88;5138887;27;20194;-70
2022/11/04 03:31:15;;;;;;;15.48;11.65;;;;;;;9.45;64.74;94951.81;5138742;27;20252;-70
2022/11/04 03:33:45;;;;;;;17.55;12.02;;;;;;;9.40;64.85;94952.03;5138696;27;20202;-70
2022/11/04 03:36:12;;;;;;;16.02;11.90;;;;;;;9.38;65.10;94962.59;5137860;27;20207;-70
2022/11/04 03:38:39;;;;;;;14.48;11.20;;;;;;;9.41;65.14;94953.66;5137777;27;20198;-71
2022/11/04 03:41:10;;;;;;;12.75;11.02;;;;;;;9.44;65.41;94952.97;5138321;27;20187;-71
2022/11/04 03:43:37;;;;;;;14.75;11.68;;;;;;;9.47;65.56;94956.97;5138135;27;20187;-70
2022/11/04 03:46:04;;;;;;;19.25;12.00;;;;;;;9.36;65.10;94948.38;5137582;27;20202;-70
2022/11/04 03:48:32;;;;;;;17.52;11.75;;;;;;;9.32;65.23;94948.28;5137519;27;20190;-70
2022/11/04 03:51:00;;;;;;;14.30;11.43;;;;;;;9.33;65.48;94947.16;5138474;27;20203;-70
2022/11/04 03:53:27;;;;;;;14.63;11.38;;;;;;;9.36;65.54;94943.66;5138432;27;20191;-70
2022/11/04 03:56:06;;;;;;;14.07;11.63;;;;;;;9.40;65.62;94941.03;5137437;27;20202;-70
2022/11/04 03:58:38;;;;;;;14.25;11.65;;;;;;;9.41;65.56;94939.91;5138279;27;20194;-70
2022/11/04 04:01:13;;;;;;;15.68;12.00;;;;;;;9.41;65.52;94942.66;5137303;27;20203;-70
2022/11/04 04:03:44;;;;;;;16.60;12.10;;;;;;;9.42;65.64;94943.44;5137948;27;20182;-71
2022/11/04 04:06:16;;;;;;;15.93;12.88;;;;;;;9.43;65.44;94942.28;5138335;27;20198;-71
2022/11/04 04:08:45;;;;;;;16.70;13.02;;;;;;;9.41;65.40;94934.41;5138127;27;20264;-71
2022/11/04 04:11:17;;;;;;;18.70;13.75;;;;;;;9.38;65.41;94941.38;5137954;27;20210;-71
2022/11/04 04:13:49;;;;;;;17.40;13.48;;;;;;;9.35;65.20;94944.84;5137512;27;20195;-71
2022/11/04 04:16:19;;;;;;;17.90;13.63;;;;;;;9.34;65.20;94942.44;5137898;27;20197;-71
2022/11/04 04:18:50;;;;;;;18.25;13.38;;;;;;;9.29;65.42;94939.91;5137045;27;20202;-71
2022/11/04 04:21:19;;;;;;;19.10;13.68;;;;;;;9.27;65.38;94939.47;5137172;27;20203;-71
2022/11/04 04:29:17;;;;;;;19.65;14.32;;;;;;;9.14;65.86;94935.94;5137406;27;20539;-70
2022/11/04 04:31:51;;;;;;;21.10;13.23;;;;;;;9.11;66.01;94937.44;5136294;27;20673;-70
2022/11/04 04:34:22;;;;;;;21.70;13.98;;;;;;;9.08;66.09;94945.59;5136645;27;20195;-70
2022/11/04 04:36:53;;;;;;;20.83;13.98;;;;;;;9.05;66.30;94935.28;5137570;27;20187;-70
2022/11/04 04:45:02;;;;;;;17.88;13.65;;;;;;;9.04;65.91;94944.66;5136631;27;20187;-71
2022/11/04 04:47:33;;;;;;;22.33;14.63;;;;;;;8.92;65.89;94940.78;5136438;27;20205;-71
2022/11/04 04:50:02;;;;;;;24.52;14.50;;;;;;;8.90;66.20;94934.84;5137127;27;20183;-70
2022/11/04 04:52:31;;;;;;;23.52;14.98;;;;;;;8.90;66.05;94939.53;5136794;27;20218;-70
2022/11/04 04:54:58;;;;;;;20.67;13.48;;;;;;;8.91;66.16;94947.44;5136529;27;20210;-70
2022/11/04 04:57:25;;;;;;;23.65;15.10;;;;;;;8.89;66.46;94946.97;5136972;27;20202;-70
2022/11/04 04:59:52;;;;;;;21.67;14.85;;;;;;;8.89;66.19;94944.22;5136142;27;20591;-70
2022/11/04 05:02:19;;;;;;;17.75;12.68;;;;;;;8.90;66.31;94951.34;5137027;27;20198;-70
2022/11/04 05:04:45;;;;;;;17.08;13.90;;;;;;;8.93;66.33;94952.56;5136437;27;20213;-70
2022/11/04 05:07:14;;;;;;;16.50;14.13;;;;;;;8.96;66.48;94949.13;5136081;27;20213;-70
2022/11/04 05:09:41;;;;;;;22.20;14.10;;;;;;;9.01;66.47;94948.91;5135993;27;20599;-70
2022/11/04 05:12:08;;;;;;;24.35;15.60;;;;;;;9.03;66.55;94943.06;5136428;27;20226;-70
2022/11/04 05:14:35;;;;;;;26.80;17.45;;;;;;;8.96;66.37;94954.63;5136160;27;20205;-71
2022/11/04 05:17:02;;;;;;;24.27;17.13;;;;;;;8.91;66.51;94947.44;5136019;27;20611;-70
2022/11/04 05:19:29;;;;;;;25.63;17.63;;;;;;;8.89;66.08;94954.41;5136898;27;20195;-70
2022/11/04 05:21:56;;;;;;;26.73;17.73;;;;;;;8.91;66.43;94952.13;5135546;27;20213;-70
2022/11/04 05:24:24;;;;;;;22.13;16.27;;;;;;;8.95;66.54;94947.53;5136247;27;20184;-71
2022/11/04 05:26:52;;;;;;;21.77;15.52;;;;;;;8.98;66.43;94954.31;5136625;27;20180;-70
2022/11/04 05:29:19;;;;;;;22.23;16.90;;;;;;;8.99;66.81;94961.41;5135965;27;20527;-70
2022/11/04 05:31:46;;;;;;;20.98;14.73;;;;;;;8.98;66.39;94962.56;5135503;27;20219;-70
2022/11/04 05:34:14;;;;;;;22.88;15.40;;;;;;;8.95;66.72;94966.78;5136514;27;20198;-70
2022/11/04 05:36:41;;;;;;;23.48;16.65;;;;;;;8.99;67.10;94967.72;5134716;27;20743;-70
2022/11/04 05:39:11;;;;;;;25.85;16.73;;;;;;;8.98;66.89;94971.63;5135902;27;20246;-70
2022/11/04 05:41:39;;;;;;;26.33;16.48;;;;;;;8.98;67.29;94979.06;5135407;27;20260;-70
2022/11/04 05:44:08;;;;;;;26.63;17.15;;;;;;;9.01;67.24;94978.38;5135936;27;20569;-70
2022/11/04 05:46:35;;;;;;;24.42;15.57;;;;;;;9.03;67.42;94981.56;5136333;27;20282;-70
2022/11/04 05:49:02;;;;;;;22.17;14.85;;;;;;;9.07;67.83;94990.75;5136343;27;20187;-70
2022/11/04 05:51:30;;;;;;;22.00;14.55;;;;;;;9.14;67.90;94986.25;5135241;27;20259;-70
2022/11/04 05:53:57;;;;;;;19.67;14.18;;;;;;;9.22;67.84;94981.78;5135287;28;20330;-70
2022/11/04 05:56:24;;;;;;;21.23;14.40;;;;;;;9.29;67.71;94984.75;5136210;27;20180;-70
2022/11/04 05:58:53;;;;;;;25.00;16.73;;;;;;;9.33;67.97;94985.69;5135374;28;20599;-70
2022/11/04 06:01:29;;;;;;;27.13;16.17;;;;;;;9.35;68.06;94986.13;5135178;28;20194;-70
2022/11/04 06:03:57;;;;;;;30.13;16.33;;;;;;;9.39;67.77;94986.22;5136165;27;20252;-70
2022/11/04 06:06:25;;;;;;;25.88;15.95;;;;;;;9.43;67.67;94983.59;5136170;27;20194;-69
2022/11/04 06:08:52;;;;;;;22.83;15.32;;;;;;;9.47;67.89;94979.78;5134903;28;20190;-69
2022/11/04 06:11:19;;;;;;;23.52;16.05;;;;;;;9.46;68.04;94986.44;5136100;27;20206;-69
2022/11/04 06:13:46;;;;;;;32.80;16.00;;;;;;;9.53;68.18;94977.59;5135094;28;20195;-70
2022/11/04 06:16:15;;;;;;;28.98;16.65;;;;;;;9.57;68.03;94973.78;5136176;27;20187;-70
2022/11/04 06:18:42;;;;;;;38.47;16.73;;;;;;;9.59;68.18;94985.28;5136125;27;20187;-70
2022/11/04 06:21:23;;;;;;;26.70;16.92;;;;;;;9.69;68.25;94978.44;5136007;27;20192;-70
2022/11/04 06:23:51;;;;;;;26.75;16.55;;;;;;;9.79;67.71;94986.22;5135044;28;20664;-70
2022/11/04 06:26:17;;;;;;;24.83;15.88;;;;;;;9.87;67.88;94984.47;5135011;28;20191;-70
2022/11/04 06:28:44;;;;;;;19.58;15.93;;;;;;;10.00;68.01;94982.47;5135338;28;20191;-70
2022/11/04 06:31:14;;;;;;;22.02;16.73;;;;;;;10.07;68.39;94991.75;5135493;27;20191;-70
2022/11/04 06:33:41;;;;;;;24.55;18.00;;;;;;;10.16;68.57;94986.06;5134986;28;20203;-70
2022/11/04 06:36:10;;;;;;;23.83;18.10;;;;;;;10.29;68.57;94984.88;5135648;28;20191;-70
2022/11/04 06:38:38;;;;;;;28.20;19.70;;;;;;;10.45;68.49;94995.94;5134809;28;20206;-70
2022/11/04 06:41:05;;;;;;;25.33;19.02;;;;;;;10.58;68.10;94986.44;5134933;28;20678;-70
2022/11/04 06:43:32;;;;;;;25.20;19.88;;;;;;;10.68;68.08;94996.16;5135754;27;20216;-70
2022/11/04 06:46:00;;;;;;;28.92;20.40;;;;;;;10.79;67.95;94990.91;5134894;28;20202;-70
2022/11/04 06:48:29;;;;;;;31.02;22.77;;;;;;;10.78;67.39;94992.03;5135731;27;20197;-70
2022/11/04 06:50:59;;;;;;;32.13;22.75;;;;;;;10.85;67.82;94992.22;5137783;27;20625;-70
2022/11/04 06:53:26;;;;;;;34.78;25.02;;;;;;;10.96;67.94;94990.53;5139438;27;20207;-70
2022/11/04 06:55:54;;;;;;;28.08;23.75;;;;;;;11.06;67.15;94984.47;5138607;27;20251;-70
2022/11/04 06:58:21;;;;;;;30.58;23.42;;;;;;;11.17;67.70;94989.44;5121928;27;20507;-70
2022/11/04 07:00:52;;;;;;;29.67;25.95;;;;;;;11.27;67.26;94981.41;5139066;27;20215;-70
2022/11/04 07:03:19;;;;;;;39.85;35.50;;;;;;;11.35;67.00;94984.34;5138448;27;20205;-70
2022/11/04 07:05:47;;;;;;;40.53;36.38;;;;;;;11.38;67.32;94983.63;5139268;27;20191;-70
2022/11/04 07:08:15;;;;;;;38.17;34.47;;;;;;;11.44;67.25;94985.75;5138286;27;20607;-70
2022/11/04 07:10:42;;;;;;;38.00;31.50;;;;;;;11.54;67.01;94982.41;5139003;27;20183;-70
2022/11/04 07:13:09;;;;;;;33.00;26.63;;;;;;;11.65;66.58;94976.31;5138460;27;20225;-70
2022/11/04 07:15:38;;;;;;;30.70;23.83;;;;;;;11.70;67.04;94968.56;5138770;27;20210;-70
2022/11/04 07:18:05;;;;;;;26.98;21.88;;;;;;;11.76;66.22;94977.34;5138170;27;20198;-70
2022/11/04 07:20:32;;;;;;;29.35;21.52;;;;;;;11.82;65.87;94971.16;5138254;27;20285;-70
2022/11/04 07:23:00;;;;;;;30.15;20.80;;;;;;;11.85;65.68;94968.88;5138979;27;20278;-70
2022/11/04 07:25:27;;;;;;;36.10;21.17;;;;;;;11.91;65.01;94970.16;5137750;27;20712;-70
2022/11/04 07:27:54;;;;;;;22.30;19.73;;;;;;;12.01;65.15;94961.28;5138812;27;20187;-70
2022/11/04 07:30:21;;;;;;;23.98;19.88;;;;;;;12.06;64.97;94960.22;5138546;27;20202;-70
2022/11/04 07:32:48;;;;;;;23.80;19.55;;;;;;;12.12;64.99;94955.97;5138700;27;20207;-70
2022/11/04 07:35:15;;;;;;;27.95;21.65;;;;;;;12.19;64.43;94953.34;5138015;27;20183;-70
2022/11/04 07:37:42;;;;;;;26.63;20.88;;;;;;;12.28;64.78;94956.69;5138586;27;20228;-70
2022/11/04 07:40:12;;;;;;;27.92;20.83;;;;;;;12.46;64.59;94941.22;5138298;27;20238;-70
2022/11/04 07:42:39;;;;;;;25.23;20.98;;;;;;;12.61;64.16;94938.72;5137961;27;20191;-70
2022/11/04 07:45:07;;;;;;;22.63;20.08;;;;;;;12.72;63.80;94943.25;5137655;27;20203;-70
2022/11/04 07:47:34;;;;;;;23.80;21.20;;;;;;;12.80;63.40;94941.41;5137487;27;20534;-70
2022/11/04 07:50:01;;;;;;;27.73;23.35;;;;;;;12.86;63.51;94939.13;5138642;27;20187;-70
2022/11/04 07:52:28;;;;;;;25.13;22.23;;;;;;;12.92;63.67;94932.88;5138354;27;20210;-69
2022/11/04 07:54:55;;;;;;;29.52;23.95;;;;;;;13.02;63.13;94932.25;5137502;27;20259;-70
2022/11/04 07:57:23;;;;;;;24.88;20.95;;;;;;;13.13;63.38;94932.44;5137354;27;20199;-70
2022/11/04 07:59:50;;;;;;;26.70;20.23;;;;;;;13.24;62.52;94929.84;5138226;27;20181;-70
2022/11/04 08:02:17;;;;;;;27.23;21.88;;;;;;;13.34;62.05;94931.97;5138249;27;20191;-70
2022/11/04 08:04:44;;;;;;;26.88;21.70;;;;;;;13.42;62.09;94930.91;5137892;27;20602;-70
2022/11/04 08:07:11;;;;;;;26.83;22.27;;;;;;;13.52;61.94;94925.91;5136789;27;20542;-70
2022/11/04 08:09:38;;;;;;;27.20;23.55;;;;;;;13.64;62.33;94922.88;5136924;27;20199;-70
2022/11/04 08:12:08;;;;;;;27.83;22.42;;;;;;;13.74;61.41;94916.69;5137510;27;20230;-70
2022/11/04 08:14:36;;;;;;;23.65;21.10;;;;;;;13.84;61.50;94915.22;5137414;27;20285;-70
2022/11/04 08:17:03;;;;;;;31.48;22.10;;;;;;;13.94;61.49;94912.59;5137297;27;20199;-70
2022/11/04 08:19:30;;;;;;;27.73;20.77;;;;;;;14.02;60.91;94902.38;5137937;27;20194;-70
2022/11/04 08:21:57;;;;;;;27.60;20.75;;;;;;;14.09;61.22;94908.00;5137864;27;20194;-70
2022/11/04 08:24:24;;;;;;;24.60;19.90;;;;;;;14.23;60.72;94909.31;5137239;27;20199;-70
2022/11/04 08:26:51;;;;;;;34.08;25.48;;;;;;;14.32;59.64;94899.50;5137887;27;20263;-70
2022/11/04 08:29:18;;;;;;;27.90;23.98;;;;;;;14.39;60.05;94893.25;5136934;27;20199;-70
2022/11/04 08:31:46;;;;;;;26.67;22.67;;;;;;;14.47;60.04;94892.13;5137535;27;20199;-70
2022/11/04 08:34:13;;;;;;;27.33;21.45;;;;;;;14.60;59.44;94878.81;5137613;27;20191;-70
2022/11/04 08:36:41;;;;;;;30.40;21.55;;;;;;;14.71;58.36;94892.78;5136956;27;20558;-70
2022/11/04 08:39:09;;;;;;;28.42;20.80;;;;;;;14.81;59.26;94884.50;5136218;27;20249;-71
2022/11/04 08:41:37;;;;;;;28.33;22.88;;;;;;;14.92;58.05;94882.63;5136492;27;20217;-70
2022/11/04 08:44:05;;;;;;;27.00;21.63;;;;;;;15.01;57.73;94876.75;5136636;27;20198;-69
2022/11/04 08:46:34;;;;;;;28.92;22.50;;;;;;;15.06;57.54;94881.13;5137412;27;20191;-70
2022/11/04 08:49:03;;;;;;;25.42;21.42;;;;;;;15.07;57.17;94886.31;5136612;27;20179;-70
2022/11/04 08:51:31;;;;;;;29.00;21.05;;;;;;;15.13;57.14;94887.53;5136066;27;20615;-70
2022/11/04 08:54:00;;;;;;;28.17;21.17;;;;;;;15.27;57.36;94874.91;5136887;27;20646;-70
2022/11/04 08:56:29;;;;;;;28.67;22.20;;;;;;;15.30;57.15;94876.94;5137107;27;20285;-70
2022/11/04 08:58:58;;;;;;;26.63;21.23;;;;;;;15.41;57.06;94861.91;5136472;27;20202;-70
2022/11/04 09:01:25;;;;;;;25.65;21.35;;;;;;;15.48;56.37;94869.47;5136143;27;20233;-70
2022/11/04 09:03:52;;;;;;;29.23;21.23;;;;;;;15.55;56.07;94866.75;5136691;27;20186;-70
2022/11/04 09:06:22;;;;;;;30.90;21.60;;;;;;;15.69;56.22;94868.81;5136028;27;20187;-70
2022/11/04 09:08:49;;;;;;;31.08;21.80;;;;;;;15.85;55.66;94858.16;5136343;27;20210;-69
2022/11/04 09:11:17;;;;;;;25.52;20.17;;;;;;;15.95;54.10;94859.38;5135793;27;20202;-69
2022/11/04 09:13:45;;;;;;;28.33;21.15;;;;;;;16.02;54.61;94853.06;5135256;27;20211;-71
2022/11/04 09:16:13;;;;;;;25.88;19.40;;;;;;;16.13;54.50;94845.53;5136207;27;20195;-71
2022/11/04 09:18:40;;;;;;;24.75;18.38;;;;;;;16.25;54.25;94842.34;5136108;27;20206;-71
2022/11/04 09:21:09;;;;;;;23.52;18.73;;;;;;;16.32;53.48;94836.00;5136075;27;20206;-71
2022/11/04 09:23:37;;;;;;;24.33;19.17;;;;;;;16.28;53.54;94832.44;5135451;27;20202;-71
2022/11/04 09:26:07;;;;;;;22.98;18.88;;;;;;;16.30;53.41;94827.25;5135726;27;20199;-71
2022/11/04 09:28:33;;;;;;;24.10;19.15;;;;;;;16.37;53.61;94832.81;5135902;27;20221;-71
2022/11/04 09:31:05;;;;;;;21.40;18.15;;;;;;;16.47;53.81;94834.03;5135651;27;20267;-70
2022/11/04 09:33:32;;;;;;;25.13;17.80;;;;;;;16.47;52.30;94823.69;5135384;27;20302;-70
2022/11/04 09:35:59;;;;;;;21.70;17.70;;;;;;;16.44;52.63;94821.69;5135443;27;20187;-70
2022/11/04 09:38:26;;;;;;;22.00;17.52;;;;;;;16.60;53.24;94810.19;5135301;27;20280;-70
2022/11/04 09:40:54;;;;;;;22.98;17.75;;;;;;;16.72;52.98;94815.34;5136248;27;20300;-70
2022/11/04 09:43:31;;;;;;;22.63;17.77;;;;;;;16.85;53.36;94799.06;5135184;27;20202;-70
2022/11/04 09:45:58;;;;;;;24.73;18.73;;;;;;;16.87;52.70;94795.88;5136004;27;20271;-70
2022/11/04 09:48:28;;;;;;;23.58;17.80;;;;;;;17.01;52.60;94788.28;5135419;27;20534;-71
2022/11/04 09:50:58;;;;;;;22.83;17.90;;;;;;;17.13;51.65;94780.69;5135543;27;20183;-71
2022/11/04 09:53:29;;;;;;;25.27;18.58;;;;;;;17.29;51.63;94779.06;5136249;27;20226;-71
2022/11/04 09:55:59;;;;;;;23.77;18.40;;;;;;;17.38;50.79;94773.03;5135391;28;20194;-72
2022/11/04 09:58:26;;;;;;;22.88;17.48;;;;;;;17.35;51.13;94770.28;5135544;28;20183;-71
2022/11/04 10:00:59;;;;;;;22.55;18.73;;;;;;;17.57;50.62;94763.41;5135835;27;20595;-71
2022/11/04 10:03:50;;;;;;;22.38;18.30;;;;;;;17.60;50.66;94759.81;5135084;28;20199;-71
2022/11/04 10:06:27;;;;;;;23.30;17.45;;;;;;;17.71;50.29;94760.56;5132488;27;20237;-71
2022/11/04 10:09:04;;;;;;;21.50;17.52;;;;;;;17.54;50.52;94761.44;5135355;28;20213;-70
2022/11/04 10:11:38;;;;;;;24.20;18.55;;;;;;;17.50;51.07;94749.50;5135038;28;20186;-70
2022/11/04 10:14:17;;;;;;;22.63;16.15;;;;;;;17.55;51.08;94749.88;5135858;27;20657;-70
2022/11/04 10:16:58;;;;;;;22.85;17.88;;;;;;;17.77;50.22;94745.00;5134975;28;20237;-71
2022/11/04 10:19:34;;;;;;;25.67;18.08;;;;;;;17.88;49.39;94736.59;5135576;27;20202;-71
2022/11/04 10:22:05;;;;;;;23.17;18.63;;;;;;;17.89;49.67;94735.38;5134690;28;20590;-70
2022/11/04 10:24:41;;;;;;;22.83;17.48;;;;;;;17.84;49.66;94730.25;5137175;27;20238;-71
2022/11/04 10:27:15;;;;;;;22.20;17.67;;;;;;;17.72;49.02;94717.53;5139955;27;20194;-71
2022/11/04 10:29:43;;;;;;;19.98;16.90;;;;;;;17.81;49.45;94717.09;5139110;27;20209;-70
2022/11/04 10:32:14;;;;;;;22.08;17.73;;;;;;;18.02;49.94;94711.38;5139265;27;20203;-70
2022/11/04 10:34:43;;;;;;;25.20;16.38;;;;;;;18.10;48.79;94708.53;5139777;27;20218;-70
2022/11/04 10:37:12;;;;;;;24.48;16.38;;;;;;;18.15;48.82;94699.72;5139381;27;20244;-71
2022/11/04 10:39:44;;;;;;;23.38;17.40;;;;;;;18.02;48.17;94696.63;5139345;27;20235;-71
2022/11/04 10:42:15;;;;;;;21.42;16.58;;;;;;;18.04;48.00;94688.63;5140072;27;20221;-71
2022/11/04 10:44:42;;;;;;;20.92;16.80;;;;;;;18.14;48.15;94679.38;5139049;27;20198;-71
2022/11/04 10:47:17;;;;;;;22.77;16.15;;;;;;;18.18;47.83;94677.38;5139563;27;20187;-70
2022/11/04 10:50:04;;;;;;;21.33;16.38;;;;;;;18.09;47.86;94667.88;5139588;27;20182;-71
2022/11/04 10:52:34;;;;;;;22.10;17.25;;;;;;;17.89;47.98;94664.84;5122397;27;20198;-71
2022/11/04 10:55:00;;;;;;;20.23;16.10;;;;;;;17.83;48.54;94656.13;5140088;27;20179;-71
2022/11/04 10:57:29;;;;;;;19.27;15.63;;;;;;;17.85;48.95;94653.72;5138807;27;20210;-71
2022/11/04 10:59:58;;;;;;;21.30;15.98;;;;;;;17.84;49.01;94640.97;5139487;27;20248;-71
2022/11/04 11:02:46;;;;;;;21.85;15.38;;;;;;;17.84;48.03;94645.75;5138575;27;20195;-70
2022/11/04 11:05:22;;;;;;;17.55;14.60;;;;;;;17.78;48.58;94640.59;5139366;27;20198;-71
2022/11/04 11:07:51;;;;;;;19.85;14.98;;;;;;;17.80;48.53;94631.84;5139005;27;20600;-71
2022/11/04 11:10:21;;;;;;;20.33;14.30;;;;;;;17.86;48.02;94630.19;5138365;27;20650;-71
2022/11/04 11:12:54;;;;;;;17.08;13.20;;;;;;;17.85;48.40;94625.81;5139262;27;20199;-71
2022/11/04 11:15:31;;;;;;;14.98;11.75;;;;;;;17.74;48.17;94625.88;5138343;27;20528;-71
2022/11/04 11:18:14;;;;;;;16.88;13.50;;;;;;;17.80;48.27;94617.91;5137873;27;20191;-71
2022/11/04 11:20:41;;;;;;;20.02;13.82;;;;;;;17.90;47.85;94610.63;5138243;27;20260;-71
2022/11/04 11:23:38;;;;;;;15.57;13.63;;;;;;;17.93;47.92;94609.81;5139016;27;20233;-71
2022/11/04 11:26:06;;;;;;;15.95;12.75;;;;;;;17.98;47.16;94595.44;5138603;27;20187;-71
2022/11/04 11:28:37;;;;;;;18.42;12.50;;;;;;;18.01;47.11;94592.63;5138309;27;20187;-71
2022/11/04 11:31:07;;;;;;;16.33;12.80;;;;;;;17.99;47.32;94585.84;5137976;27;20187;-70
2022/11/04 11:33:35;;;;;;;15.95;12.55;;;;;;;17.95;47.34;94580.28;5138741;27;20203;-70
2022/11/04 11:36:10;;;;;;;14.90;11.90;;;;;;;17.98;47.47;94573.09;5137516;27;20206;-71
2022/11/04 11:38:38;;;;;;;16.23;13.20;;;;;;;18.09;47.12;94571.00;5138730;27;20205;-71
2022/11/04 11:41:06;;;;;;;18.90;13.45;;;;;;;18.08;46.74;94563.81;5137399;27;20649;-71
2022/11/04 11:43:36;;;;;;;14.85;11.80;;;;;;;17.99;45.95;94567.09;5138511;27;20183;-71
2022/11/04 11:46:03;;;;;;;15.05;10.93;;;;;;;17.91;46.87;94553.66;5137607;27;20629;-70
2022/11/04 11:48:32;;;;;;;15.45;11.15;;;;;;;17.82;46.32;94550.53;5138828;27;20179;-71
2022/11/04 11:50:59;;;;;;;18.00;11.73;;;;;;;17.72;46.38;94549.38;5138565;27;20187;-71
2022/11/04 11:53:32;;;;;;;16.90;11.30;;;;;;;17.62;46.76;94550.28;5138243;27;20529;-71
2022/11/04 11:56:08;;;;;;;17.30;12.45;;;;;;;17.61;46.82;94540.31;5138338;27;20248;-71
2022/11/04 11:58:41;;;;;;;20.65;13.15;;;;;;;17.60;47.54;94541.53;5138046;27;20225;-71
2022/11/04 12:01:14;;;;;;;19.48;13.32;;;;;;;17.61;47.87;94535.56;5138465;27;20190;-71